Terminal Aerodrome Forecast
Issued by NWS

Home | Current Version | Previous Version | Text Only | Print | Product List | Glossary On
Versions: 1 2 3 4 5 6 7 8 9 10 11 12 13 14 15 16 17 18 19 20 21 22 23 24 25 26 27 28 29 30 31 32 33 34 35 36
000
FTUS45 KSLC 231747
TAFBCE
TAF
KBCE 231747Z 2318/2418 31015G22KT 1/2SM SN BKN020 OVC070
     FM232300 31020G30KT 4SM -RASN BKN020 OVC080
     FM240200 31012G20KT P6SM SCT040 SCT120
     FM240900 32009KT P6SM SCT050 SCT100=

USA.gov is the U.S. government's official web portal to all federal, state and local government web resources and services.